Time;durP1;ratioP1;P1;durP2;ratioP2;P2;SDS_P1;SDS_P2;PMS_P1;PMS_P2;Temp;Humidity;BMP_temperature;BMP_pressure;BME280_temperature;BME280_humidity;BME280_pressure;Samples;Min_cycle;Max_cycle;Signal;HPM_P1;HPM_P2
2023/09/07 00:01:52;;;;;;;;;;;;;;;;;;;;;
2023/09/07 00:04:56;;;;;;;103.50;55.75;;;21.10;87.70;;;;;;4885118;28;125796;-78
2023/09/07 00:07:48;;;;;;;103.00;55.95;;;21.10;88.00;;;;;;4909513;28;95592;-79
2023/09/07 00:10:20;;;;;;;102.68;55.80;;;21.10;88.10;;;;;;4884863;28;95598;-79
2023/09/07 00:13:06;;;;;;;103.95;56.40;;;21.00;88.40;;;;;;4907057;28;95205;-77
2023/09/07 00:15:45;;;;;;;104.18;56.10;;;21.00;88.50;;;;;;4933188;28;95458;-79
2023/09/07 00:19:06;;;;;;;102.95;55.83;;;21.00;88.70;;;;;;4944378;28;97269;-79
2023/09/07 00:22:02;;;;;;;;;;;;;;;;;;;;;
2023/09/07 00:27:48;;;;;;;102.85;56.03;;;20.90;88.90;;;;;;4910773;28;95617;-78
2023/09/07 00:30:34;;;;;;;102.72;55.70;;;20.90;89.20;;;;;;4912442;28;95884;-78
2023/09/07 00:33:35;;;;;;;103.95;56.20;;;20.90;89.20;;;;;;4899240;28;97855;-77
2023/09/07 00:36:58;;;;;;;102.75;55.75;;;20.90;89.30;;;;;;4906413;28;95500;-78
2023/09/07 00:40:13;;;;;;;103.72;56.00;;;20.90;89.40;;;;;;4905580;28;95302;-77
2023/09/07 00:43:07;;;;;;;103.38;55.85;;;20.90;89.70;;;;;;4896322;28;95712;-79
2023/09/07 00:45:51;;;;;;;103.28;56.05;;;20.80;89.60;;;;;;4907680;28;95555;-78
2023/09/07 00:52:10;;;;;;;102.63;56.08;;;20.80;89.70;;;;;;4901908;28;96144;-77
2023/09/07 00:55:16;;;;;;;104.93;56.35;;;20.80;90.00;;;;;;4907892;28;99310;-78
2023/09/07 00:57:49;;;;;;;104.53;56.17;;;20.70;90.00;;;;;;4915107;28;97559;-79
2023/09/07 01:00:15;;;;;;;102.47;55.75;;;20.70;90.10;;;;;;4913482;28;95723;-79
2023/09/07 01:02:44;;;;;;;102.93;56.13;;;20.70;90.10;;;;;;4908650;28;96492;-77
2023/09/07 01:05:48;;;;;;;102.72;56.13;;;20.70;90.10;;;;;;4912867;28;96253;-78
2023/09/07 01:09:01;;;;;;;103.22;56.53;;;20.70;90.30;;;;;;4888886;28;96685;-78
2023/09/07 01:15:14;;;;;;;103.15;56.05;;;20.60;90.40;;;;;;4901604;28;95768;-78
2023/09/07 01:17:57;;;;;;;103.93;56.35;;;20.60;90.20;;;;;;4910124;28;95788;-79
2023/09/07 01:21:12;;;;;;;103.22;56.53;;;20.60;90.20;;;;;;4904036;28;97238;-78
2023/09/07 01:23:48;;;;;;;102.10;55.90;;;20.60;90.30;;;;;;4891706;28;94092;-79
2023/09/07 01:29:43;;;;;;;;;;;20.60;90.40;;;;;;4914371;28;95741;-78
2023/09/07 01:32:45;;;;;;;104.78;56.28;;;20.50;90.50;;;;;;4894507;28;95985;-79
2023/09/07 01:38:23;;;;;;;102.50;56.15;;;20.50;90.60;;;;;;4906314;28;99341;-79
2023/09/07 01:41:19;;;;;;;102.38;55.83;;;20.50;90.60;;;;;;4909329;28;94878;-77
2023/09/07 01:44:32;;;;;;;104.18;56.35;;;20.40;90.60;;;;;;4907375;28;98566;-79
2023/09/07 01:51:05;;;;;;;102.40;55.83;;;20.40;90.70;;;;;;4910861;28;96006;-79
2023/09/07 01:54:16;;;;;;;103.20;55.97;;;20.40;90.90;;;;;;4911146;28;94353;-79
2023/09/07 01:57:29;;;;;;;102.95;56.17;;;20.40;91.00;;;;;;4910125;28;96516;-77
2023/09/07 02:00:30;;;;;;;;;;;20.40;91.00;;;;;;4851370;28;99145;-74
2023/09/07 02:03:57;;;;;;;103.13;55.97;;;20.30;90.90;;;;;;4800370;28;97365;-79
2023/09/07 02:06:37;;;;;;;103.28;56.38;;;20.40;91.00;;;;;;4837334;28;97563;-79
2023/09/07 02:09:41;;;;;;;103.70;55.80;;;20.30;91.00;;;;;;4848126;28;95791;-79
2023/09/07 02:12:12;;;;;;;103.13;55.95;;;20.30;91.10;;;;;;4852451;28;94873;-79
2023/09/07 02:14:41;;;;;;;103.90;55.92;;;20.20;91.10;;;;;;4831867;28;95471;-79
2023/09/07 02:17:17;;;;;;;102.35;55.88;;;20.20;91.10;;;;;;4894968;28;96759;-76
2023/09/07 02:19:52;;;;;;;102.88;56.45;;;20.20;91.20;;;;;;4894003;28;94939;-79
2023/09/07 02:23:23;;;;;;;103.03;56.42;;;20.20;91.10;;;;;;4910901;28;95405;-79
2023/09/07 02:25:59;;;;;;;103.85;56.25;;;20.20;91.20;;;;;;4913372;28;97124;-79
2023/09/07 02:29:05;;;;;;;105.05;56.30;;;20.10;91.30;;;;;;4917680;28;97039;-78
2023/09/07 02:31:59;;;;;;;102.03;55.70;;;20.10;91.20;;;;;;4929291;28;96734;-79
2023/09/07 02:34:50;;;;;;;102.40;55.65;;;20.10;91.30;;;;;;4904152;28;97266;-78
2023/09/07 02:40:28;;;;;;;103.63;56.20;;;20.10;91.30;;;;;;4892351;28;97313;-77
2023/09/07 02:43:43;;;;;;;103.45;56.33;;;20.10;91.50;;;;;;4911614;28;96990;-79
2023/09/07 02:46:56;;;;;;;103.70;56.28;;;20.10;91.50;;;;;;4909455;28;95304;-79
2023/09/07 02:50:01;;;;;;;;;;;;;;;;;;;;;
2023/09/07 02:52:44;;;;;;;103.53;56.50;;;20.00;91.40;;;;;;4919837;28;125014;-78
2023/09/07 02:55:24;;;;;;;103.93;56.80;;;20.00;91.60;;;;;;4902440;28;95707;-78
2023/09/07 02:58:00;;;;;;;103.18;56.63;;;20.00;91.60;;;;;;4926767;28;95225;-77
2023/09/07 03:01:13;;;;;;;102.78;56.22;;;20.00;91.60;;;;;;4919907;28;96651;-77
2023/09/07 03:04:25;;;;;;;;;;;;;;;;;;;;;
2023/09/07 03:09:44;;;;;;;103.53;56.03;;;19.90;91.70;;;;;;4916715;28;94874;-79
2023/09/07 03:12:14;;;;;;;103.53;56.88;;;19.90;91.90;;;;;;4921560;28;95223;-77
2023/09/07 03:15:34;;;;;;;102.03;56.20;;;19.90;91.80;;;;;;4905076;28;97749;-77
2023/09/07 03:18:17;;;;;;;102.43;56.38;;;19.90;91.80;;;;;;4917205;28;95365;-77
2023/09/07 03:24:31;;;;;;;102.25;56.38;;;19.80;91.90;;;;;;4888743;28;97441;-76
2023/09/07 03:30:35;;;;;;;102.72;56.17;;;19.80;91.80;;;;;;4907141;28;100763;-77
2023/09/07 03:33:30;;;;;;;102.82;56.60;;;19.80;92.00;;;;;;4926032;28;97371;-78
2023/09/07 03:35:58;;;;;;;101.57;56.00;;;19.70;92.00;;;;;;4922292;28;98744;-78
2023/09/07 03:38:27;;;;;;;103.57;56.80;;;19.70;92.00;;;;;;4926461;28;95077;-78
2023/09/07 03:41:17;;;;;;;103.30;55.95;;;19.70;91.90;;;;;;4936813;28;94765;-78
2023/09/07 03:43:54;;;;;;;102.78;56.20;;;19.70;91.90;;;;;;4931728;28;97130;-78
2023/09/07 03:46:48;;;;;;;102.40;56.53;;;19.60;92.10;;;;;;4927876;28;95356;-77
2023/09/07 03:49:16;;;;;;;102.28;56.45;;;19.70;92.10;;;;;;4935059;28;95301;-76
2023/09/07 03:51:42;;;;;;;102.45;56.17;;;19.60;92.00;;;;;;4932891;28;96536;-77
2023/09/07 03:54:10;;;;;;;102.72;56.58;;;19.60;92.10;;;;;;4932684;28;94924;-78
2023/09/07 03:56:57;;;;;;;;;;;;;;;;;;;;;
2023/09/07 03:59:45;;;;;;;104.35;56.92;;;19.60;92.10;;;;;;4928409;28;123795;-79
2023/09/07 04:03:21;;;;;;;104.88;56.42;;;19.60;92.40;;;;;;4929950;28;95101;-79
2023/09/07 04:09:40;;;;;;;102.95;56.65;;;19.60;92.10;;;;;;4816497;29;98084;-78
2023/09/07 04:15:57;;;;;;;103.35;56.50;;;19.50;92.50;;;;;;4856923;28;95226;-79
2023/09/07 04:21:25;;;;;;;103.65;55.88;;;19.50;92.40;;;;;;4876673;28;95191;-78
2023/09/07 04:24:19;;;;;;;102.25;56.50;;;19.50;92.70;;;;;;4894762;28;95875;-78
2023/09/07 04:27:45;;;;;;;102.28;56.33;;;19.50;92.50;;;;;;4872542;28;97692;-79
2023/09/07 04:30:27;;;;;;;101.93;56.20;;;19.50;92.30;;;;;;4923384;28;95397;-79
2023/09/07 04:33:07;;;;;;;103.85;55.88;;;19.40;92.40;;;;;;4921961;28;95523;-78
2023/09/07 04:35:33;;;;;;;102.07;56.22;;;19.40;92.50;;;;;;4914569;28;95949;-76
2023/09/07 04:37:59;;;;;;;103.05;56.63;;;19.40;92.60;;;;;;4929578;28;94619;-81
2023/09/07 04:40:25;;;;;;;102.13;56.13;;;19.40;92.60;;;;;;4931587;28;95853;-81
2023/09/07 04:42:51;;;;;;;103.45;56.63;;;19.40;95.20;;;;;;4939257;28;95065;-80
2023/09/07 04:45:17;;;;;;;102.22;56.25;;;19.50;92.90;;;;;;4925618;28;93980;-80
2023/09/07 04:47:43;;;;;;;103.47;56.60;;;19.40;92.80;;;;;;4925140;28;95643;-78
2023/09/07 04:50:09;;;;;;;103.50;56.95;;;19.40;92.60;;;;;;4929082;28;94718;-79
2023/09/07 04:52:35;;;;;;;103.60;56.97;;;19.30;92.80;;;;;;4899963;28;99535;-80
2023/09/07 04:55:01;;;;;;;103.97;57.30;;;19.40;92.80;;;;;;4905194;28;95522;-79
2023/09/07 04:57:27;;;;;;;104.18;56.80;;;19.30;93.50;;;;;;4921918;28;95438;-79
2023/09/07 04:59:53;;;;;;;104.78;57.22;;;19.30;92.80;;;;;;4916850;28;94834;-81
2023/09/07 05:02:18;;;;;;;106.05;57.47;;;19.30;92.80;;;;;;4934748;28;95977;-80
2023/09/07 05:04:45;;;;;;;105.93;57.45;;;19.30;92.70;;;;;;4932226;28;96780;-78
2023/09/07 05:07:10;;;;;;;106.45;57.50;;;19.30;93.50;;;;;;4916447;28;95244;-81
2023/09/07 05:09:36;;;;;;;105.78;57.20;;;19.30;93.30;;;;;;4934441;28;94982;-79
2023/09/07 05:12:02;;;;;;;107.43;57.78;;;19.30;93.40;;;;;;4942336;28;94653;-79
2023/09/07 05:14:29;;;;;;;107.55;58.03;;;19.20;93.10;;;;;;4926985;28;94542;-78
2023/09/07 05:16:56;;;;;;;106.55;57.53;;;19.20;93.20;;;;;;4930599;28;98236;-81
2023/09/07 05:19:22;;;;;;;106.20;57.85;;;19.20;93.00;;;;;;4935270;28;94764;-82
2023/09/07 05:21:47;;;;;;;105.82;57.50;;;19.20;93.10;;;;;;4943349;28;95431;-80
2023/09/07 05:24:14;;;;;;;110.32;58.38;;;19.20;93.20;;;;;;4940128;28;95257;-76
2023/09/07 05:26:41;;;;;;;108.05;58.03;;;19.20;93.30;;;;;;4938285;28;94569;-76
2023/09/07 05:29:06;;;;;;;108.00;57.85;;;19.20;93.20;;;;;;4945465;28;94337;-76
2023/09/07 05:31:32;;;;;;;107.93;57.40;;;19.10;93.20;;;;;;4936561;28;97602;-79
2023/09/07 05:33:57;;;;;;;109.93;57.35;;;19.10;93.10;;;;;;4941041;28;95105;-80
2023/09/07 05:36:23;;;;;;;108.72;57.42;;;19.20;93.20;;;;;;4937177;28;96249;-81
2023/09/07 05:38:49;;;;;;;107.38;57.60;;;19.20;93.90;;;;;;4939522;28;95964;-77
2023/09/07 05:41:14;;;;;;;104.65;57.47;;;19.20;93.50;;;;;;4939875;28;96931;-80
2023/09/07 05:43:40;;;;;;;108.07;58.10;;;19.20;93.40;;;;;;4936780;28;98490;-76
2023/09/07 05:46:06;;;;;;;109.90;57.90;;;19.10;93.10;;;;;;4941417;28;95456;-80
2023/09/07 05:48:31;;;;;;;109.65;57.90;;;19.10;93.70;;;;;;4931357;28;96410;-77
2023/09/07 05:50:57;;;;;;;109.93;59.60;;;19.10;94.20;;;;;;4929463;28;97832;-80
2023/09/07 05:53:24;;;;;;;109.32;60.38;;;19.10;91.70;;;;;;4910494;28;99410;-80
2023/09/07 05:55:50;;;;;;;104.93;58.88;;;18.70;91.70;;;;;;4923114;28;95393;-80
2023/09/07 05:58:15;;;;;;;105.03;59.45;;;18.30;92.90;;;;;;4938322;28;94197;-80
2023/09/07 06:00:41;;;;;;;105.03;59.53;;;18.00;93.80;;;;;;4928759;28;96338;-77
2023/09/07 06:03:10;;;;;;;111.63;58.78;;;17.80;94.50;;;;;;4918983;28;96340;-79
2023/09/07 06:05:38;;;;;;;108.18;59.15;;;17.80;95.10;;;;;;4929729;28;96194;-78
2023/09/07 06:08:04;;;;;;;107.60;59.13;;;17.80;95.00;;;;;;4928890;28;95949;-80
2023/09/07 06:10:30;;;;;;;108.22;59.45;;;17.80;95.20;;;;;;4922440;28;95282;-77
2023/09/07 06:12:56;;;;;;;111.40;60.00;;;17.80;95.40;;;;;;4925534;28;97450;-82
2023/09/07 06:15:22;;;;;;;104.35;58.75;;;17.80;95.70;;;;;;4918437;28;95051;-74
2023/09/07 06:17:48;;;;;;;104.95;59.58;;;17.90;95.70;;;;;;4903541;28;95952;-77
2023/09/07 06:20:13;;;;;;;105.93;59.75;;;17.90;95.80;;;;;;4905540;28;96567;-76
2023/09/07 06:22:39;;;;;;;107.60;59.80;;;17.80;96.00;;;;;;4905274;28;99358;-74
2023/09/07 06:25:05;;;;;;;106.75;59.58;;;17.80;96.40;;;;;;4885365;28;95981;-75
2023/09/07 06:27:31;;;;;;;105.90;60.20;;;17.90;96.40;;;;;;4888266;28;96750;-77
2023/09/07 06:29:58;;;;;;;106.55;60.30;;;18.00;96.10;;;;;;4900711;28;95378;-76
2023/09/07 06:32:23;;;;;;;108.80;59.80;;;18.00;95.80;;;;;;4886136;28;97659;-78
2023/09/07 06:34:52;;;;;;;104.32;59.63;;;18.10;95.60;;;;;;4886696;28;95282;-77
2023/09/07 06:37:17;;;;;;;107.97;60.60;;;18.10;95.70;;;;;;4905658;28;94648;-79
2023/09/07 06:39:43;;;;;;;108.15;60.47;;;18.20;96.00;;;;;;4934806;28;94907;-77
2023/09/07 06:42:12;;;;;;;110.45;60.67;;;18.40;95.60;;;;;;4905201;28;95303;-78
2023/09/07 06:44:37;;;;;;;106.07;59.65;;;18.50;95.40;;;;;;4899890;28;96457;-76
2023/09/07 06:47:04;;;;;;;109.03;61.25;;;18.60;95.40;;;;;;4899675;28;95438;-76
2023/09/07 06:49:29;;;;;;;107.93;61.83;;;18.70;95.20;;;;;;4913954;28;96506;-75
2023/09/07 06:51:56;;;;;;;109.72;61.65;;;18.70;95.30;;;;;;4913340;28;95407;-77
2023/09/07 06:54:22;;;;;;;107.63;60.35;;;18.80;94.90;;;;;;4897589;28;95985;-77
2023/09/07 06:56:48;;;;;;;107.85;60.55;;;18.90;94.90;;;;;;4909710;28;94767;-77
2023/09/07 06:59:14;;;;;;;109.30;60.70;;;19.00;94.70;;;;;;4897374;28;97619;-79
2023/09/07 07:01:40;;;;;;;113.45;60.70;;;19.20;94.40;;;;;;4908957;28;94865;-76
2023/09/07 07:04:06;;;;;;;111.82;61.33;;;19.30;93.70;;;;;;4901198;28;96691;-74
2023/09/07 07:06:32;;;;;;;108.57;60.88;;;19.40;93.60;;;;;;4902980;28;94820;-77
2023/09/07 07:08:57;;;;;;;107.70;60.53;;;19.40;93.30;;;;;;4896906;28;95394;-77
2023/09/07 07:11:23;;;;;;;108.70;60.15;;;19.40;93.80;;;;;;4902043;28;96867;-76
2023/09/07 07:13:48;;;;;;;106.68;59.92;;;19.50;93.60;;;;;;4897958;28;97934;-77
2023/09/07 07:16:16;;;;;;;113.22;61.35;;;19.60;93.00;;;;;;4914352;28;96251;-79
2023/09/07 07:18:42;;;;;;;105.80;59.60;;;19.70;92.60;;;;;;4903781;28;97800;-80
2023/09/07 07:21:09;;;;;;;107.47;59.38;;;19.90;91.80;;;;;;4896758;28;96812;-76
2023/09/07 07:23:35;;;;;;;110.68;60.00;;;20.00;91.30;;;;;;4895859;28;96246;-80
2023/09/07 07:26:00;;;;;;;110.43;59.40;;;20.10;91.10;;;;;;4903237;28;97558;-76
2023/09/07 07:28:26;;;;;;;112.75;59.80;;;20.20;90.90;;;;;;4892055;28;96799;-76
2023/09/07 07:30:53;;;;;;;110.10;59.33;;;20.40;89.80;;;;;;4903378;28;100186;-75
2023/09/07 07:33:19;;;;;;;107.90;58.70;;;20.40;89.60;;;;;;4889477;28;96218;-75
2023/09/07 07:35:45;;;;;;;106.95;58.88;;;20.50;88.70;;;;;;4902295;28;94422;-80
2023/09/07 07:38:13;;;;;;;109.38;59.70;;;20.60;87.10;;;;;;4893709;28;98981;-76
2023/09/07 07:40:39;;;;;;;108.47;59.42;;;20.80;86.50;;;;;;4908205;28;94828;-76
2023/09/07 07:43:06;;;;;;;108.32;59.20;;;20.90;85.20;;;;;;4898168;28;96230;-80
2023/09/07 07:45:36;;;;;;;109.60;59.28;;;20.90;85.10;;;;;;4906363;28;96398;-75
2023/09/07 07:48:02;;;;;;;109.47;59.20;;;21.00;84.60;;;;;;4909500;28;95227;-77
2023/09/07 07:50:27;;;;;;;125.35;59.17;;;21.00;85.70;;;;;;4905179;28;95826;-77
2023/09/07 07:52:53;;;;;;;110.65;59.20;;;21.00;85.90;;;;;;4885211;28;95819;-76
2023/09/07 07:55:19;;;;;;;108.43;58.58;;;21.10;85.00;;;;;;4883923;28;95596;-75
2023/09/07 07:57:44;;;;;;;108.00;59.33;;;21.20;85.30;;;;;;4898679;28;95000;-78
2023/09/07 08:00:10;;;;;;;111.40;60.25;;;21.10;85.40;;;;;;4894504;28;99970;-76
2023/09/07 08:02:36;;;;;;;110.63;59.53;;;21.20;84.90;;;;;;4896407;28;97926;-76
2023/09/07 08:05:02;;;;;;;111.30;59.22;;;21.30;86.00;;;;;;4905956;28;96090;-78
2023/09/07 08:07:27;;;;;;;110.95;59.42;;;21.20;85.60;;;;;;4902388;28;98624;-77
2023/09/07 08:09:53;;;;;;;112.05;59.33;;;21.30;86.00;;;;;;4882486;28;96984;-77
2023/09/07 08:12:18;;;;;;;109.25;59.08;;;21.40;85.90;;;;;;4886463;28;95062;-77
2023/09/07 08:14:44;;;;;;;108.65;58.95;;;21.40;85.40;;;;;;4895986;28;99693;-77
2023/09/07 08:17:10;;;;;;;110.38;58.90;;;21.40;84.50;;;;;;4899468;28;96222;-76
2023/09/07 08:19:35;;;;;;;110.53;59.90;;;21.50;86.20;;;;;;4899533;28;96764;-75
2023/09/07 08:22:04;;;;;;;109.00;58.85;;;21.60;85.60;;;;;;4902630;28;98106;-77
2023/09/07 08:24:30;;;;;;;113.40;58.88;;;21.60;85.30;;;;;;4881205;28;94823;-76
2023/09/07 08:26:57;;;;;;;110.13;59.45;;;21.70;85.80;;;;;;4908902;28;94568;-76
2023/09/07 08:29:26;;;;;;;107.70;58.58;;;21.70;84.50;;;;;;4912409;28;94585;-77
2023/09/07 08:31:53;;;;;;;113.53;59.53;;;21.80;85.00;;;;;;4895682;28;98575;-76
2023/09/07 08:34:20;;;;;;;116.38;59.22;;;21.80;84.40;;;;;;4904029;28;96279;-76
2023/09/07 08:36:46;;;;;;;112.40;58.88;;;21.90;84.30;;;;;;4895884;28;95138;-77
2023/09/07 08:39:13;;;;;;;111.75;59.40;;;21.80;85.10;;;;;;4884621;28;96924;-77
2023/09/07 08:41:43;;;;;;;110.53;59.42;;;22.00;85.20;;;;;;4897034;28;95176;-75
2023/09/07 08:44:29;;;;;;;110.32;59.65;;;22.00;83.20;;;;;;4891823;28;96745;-76
2023/09/07 08:46:55;;;;;;;112.97;58.80;;;22.00;83.40;;;;;;4897819;28;96026;-77
2023/09/07 08:49:23;;;;;;;115.25;58.85;;;22.10;84.30;;;;;;4881284;28;96923;-78
2023/09/07 08:51:49;;;;;;;112.60;59.55;;;22.10;82.50;;;;;;4896578;28;95649;-76
2023/09/07 08:54:15;;;;;;;113.35;59.42;;;22.20;81.80;;;;;;4903364;28;95434;-79
2023/09/07 08:56:41;;;;;;;110.05;58.47;;;22.20;80.00;;;;;;4904387;28;100542;-75
2023/09/07 08:59:07;;;;;;;111.57;59.15;;;22.30;82.30;;;;;;4885437;28;95949;-76
2023/09/07 09:01:32;;;;;;;109.20;59.05;;;22.40;81.80;;;;;;4901988;28;95219;-76
2023/09/07 09:03:58;;;;;;;111.78;58.92;;;22.50;81.70;;;;;;4896790;28;96522;-76
2023/09/07 09:06:24;;;;;;;116.32;59.75;;;22.50;81.90;;;;;;4883622;28;97067;-79
2023/09/07 09:08:56;;;;;;;120.03;60.60;;;22.60;81.20;;;;;;4890875;28;98881;-79
2023/09/07 09:11:23;;;;;;;112.28;60.03;;;22.60;80.10;;;;;;4899282;28;95145;-77
2023/09/07 09:13:50;;;;;;;112.80;59.85;;;22.70;80.20;;;;;;4889281;28;96926;-76
2023/09/07 09:16:16;;;;;;;112.82;60.63;;;22.70;80.10;;;;;;4901327;28;97661;-77
2023/09/07 09:18:52;;;;;;;120.47;60.30;;;22.80;79.20;;;;;;4898546;28;96451;-78
2023/09/07 09:21:21;;;;;;;114.70;60.08;;;22.90;79.80;;;;;;4897054;28;97401;-76
2023/09/07 09:23:51;;;;;;;115.30;60.67;;;23.00;79.90;;;;;;4896197;28;97050;-75
2023/09/07 09:26:18;;;;;;;113.85;60.95;;;23.00;79.50;;;;;;4908600;28;99360;-78
2023/09/07 09:28:46;;;;;;;114.80;61.35;;;23.10;78.00;;;;;;4893373;28;96213;-76
2023/09/07 09:31:13;;;;;;;115.43;60.85;;;23.10;79.00;;;;;;4885908;28;97542;-81
2023/09/07 09:33:47;;;;;;;114.30;60.97;;;23.20;78.10;;;;;;4902385;28;97806;-78
2023/09/07 09:36:12;;;;;;;119.72;60.53;;;23.30;78.60;;;;;;4902795;28;96179;-78
2023/09/07 09:38:38;;;;;;;119.88;60.28;;;23.30;78.00;;;;;;4883505;28;95119;-76
2023/09/07 09:41:04;;;;;;;118.15;61.22;;;23.40;79.00;;;;;;4899644;28;94860;-77
2023/09/07 09:43:30;;;;;;;118.47;60.20;;;23.40;78.40;;;;;;4898687;28;95643;-79
2023/09/07 09:45:57;;;;;;;114.43;60.47;;;23.40;78.20;;;;;;4889858;28;96508;-77
2023/09/07 09:48:23;;;;;;;117.50;59.85;;;23.40;76.80;;;;;;4904765;28;96488;-79
2023/09/07 09:50:49;;;;;;;114.10;60.05;;;23.40;77.70;;;;;;4900076;28;98047;-76
2023/09/07 09:53:20;;;;;;;117.72;60.13;;;23.50;77.60;;;;;;4898027;28;98003;-77
2023/09/07 09:55:52;;;;;;;116.68;60.28;;;23.60;77.40;;;;;;4904180;28;95784;-77
2023/09/07 09:58:18;;;;;;;112.38;60.85;;;23.60;77.80;;;;;;4891863;28;99450;-75
2023/09/07 10:00:47;;;;;;;114.60;60.90;;;23.70;77.80;;;;;;4901338;28;95148;-76
2023/09/07 10:03:27;;;;;;;113.55;60.33;;;23.70;77.40;;;;;;4894691;28;95499;-76
2023/09/07 10:05:53;;;;;;;118.95;60.67;;;23.70;77.40;;;;;;4898858;28;95543;-76
2023/09/07 10:08:22;;;;;;;113.07;61.55;;;23.80;77.40;;;;;;4870666;28;100225;-77
2023/09/07 10:10:49;;;;;;;114.43;60.80;;;23.80;77.50;;;;;;4900021;28;98425;-78
2023/09/07 10:13:16;;;;;;;113.20;61.17;;;23.80;77.00;;;;;;4880150;28;97348;-78
2023/09/07 10:15:42;;;;;;;119.38;60.53;;;23.80;76.80;;;;;;4899410;28;97247;-75
2023/09/07 10:18:14;;;;;;;114.78;61.05;;;23.90;77.00;;;;;;4894407;28;98020;-78
2023/09/07 10:20:56;;;;;;;113.63;60.28;;;23.90;76.60;;;;;;4894977;28;95032;-76
2023/09/07 10:23:25;;;;;;;118.05;60.58;;;23.90;77.10;;;;;;4895442;28;97626;-77
2023/09/07 10:25:52;;;;;;;115.65;61.97;;;24.00;76.90;;;;;;4889372;28;96129;-77
2023/09/07 10:28:23;;;;;;;112.90;60.70;;;24.00;75.60;;;;;;4879691;28;95383;-75
2023/09/07 10:31:06;;;;;;;112.57;60.10;;;24.10;77.10;;;;;;4888829;28;97565;-74
2023/09/07 10:33:33;;;;;;;120.45;64.55;;;24.10;76.50;;;;;;4894106;28;95248;-75
2023/09/07 10:35:59;;;;;;;118.53;60.75;;;24.20;77.10;;;;;;4898652;28;98175;-77
2023/09/07 10:38:25;;;;;;;113.40;60.25;;;24.20;76.90;;;;;;4892428;28;94783;-75
2023/09/07 10:40:58;;;;;;;111.00;59.13;;;24.10;78.10;;;;;;4903889;28;97492;-78
2023/09/07 10:43:30;;;;;;;113.60;59.00;;;24.10;78.60;;;;;;4892333;28;99378;-75
2023/09/07 10:45:58;;;;;;;112.13;59.53;;;24.10;79.10;;;;;;4896207;28;97675;-75
2023/09/07 10:48:25;;;;;;;116.07;59.53;;;24.10;79.00;;;;;;4896239;28;95843;-76
2023/09/07 10:50:52;;;;;;;112.35;59.45;;;24.10;79.80;;;;;;4899033;28;95913;-75
2023/09/07 10:53:31;;;;;;;112.13;60.45;;;24.10;79.40;;;;;;4879792;28;95749;-76
2023/09/07 10:55:59;;;;;;;111.35;59.40;;;24.10;78.40;;;;;;4893997;28;100246;-78
2023/09/07 10:58:31;;;;;;;111.97;60.13;;;24.20;79.60;;;;;;4902573;28;98212;-80
2023/09/07 11:00:56;;;;;;;117.57;59.80;;;24.30;80.10;;;;;;4902198;28;97570;-80
2023/09/07 11:03:24;;;;;;;115.88;59.75;;;24.30;80.90;;;;;;4899481;28;97910;-78
2023/09/07 11:05:53;;;;;;;109.85;59.78;;;24.30;79.90;;;;;;4886865;28;97336;-76
2023/09/07 11:08:19;;;;;;;109.82;59.50;;;24.50;77.20;;;;;;4900422;28;96710;-74
2023/09/07 11:10:44;;;;;;;110.18;59.53;;;24.60;76.30;;;;;;4894095;28;99079;-75
2023/09/07 11:13:10;;;;;;;110.05;59.75;;;24.60;75.00;;;;;;4899603;28;97009;-76
2023/09/07 11:15:36;;;;;;;110.97;59.47;;;24.60;73.60;;;;;;4913072;28;95590;-76
2023/09/07 11:18:08;;;;;;;110.78;59.25;;;24.70;72.30;;;;;;4903718;28;94987;-81
2023/09/07 11:20:40;;;;;;;109.22;59.25;;;24.70;71.00;;;;;;4902495;28;96656;-76
2023/09/07 11:23:07;;;;;;;112.75;58.85;;;24.60;70.30;;;;;;4894019;28;97314;-75
2023/09/07 11:25:39;;;;;;;111.82;59.22;;;24.70;68.70;;;;;;4896228;28;96979;-77
2023/09/07 11:28:05;;;;;;;112.03;59.45;;;24.70;67.40;;;;;;4892060;28;95613;-78
2023/09/07 11:30:35;;;;;;;113.10;59.58;;;24.70;66.40;;;;;;4880719;28;96651;-78
2023/09/07 11:33:10;;;;;;;112.78;59.33;;;24.70;65.20;;;;;;4895521;28;96791;-75
2023/09/07 11:35:35;;;;;;;111.30;59.40;;;24.70;64.40;;;;;;4895203;28;95974;-77
2023/09/07 11:38:04;;;;;;;110.95;58.63;;;24.70;63.10;;;;;;4898650;28;98034;-75
2023/09/07 11:40:30;;;;;;;111.25;58.55;;;24.60;62.20;;;;;;4908689;28;97316;-77
2023/09/07 11:42:56;;;;;;;107.72;58.72;;;24.60;62.00;;;;;;4916842;28;95676;-74
2023/09/07 11:45:22;;;;;;;108.50;59.10;;;24.60;61.80;;;;;;4910723;28;97149;-78
2023/09/07 11:47:48;;;;;;;110.15;59.33;;;24.60;60.90;;;;;;4885923;28;97029;-75
2023/09/07 11:50:16;;;;;;;109.80;58.63;;;24.60;60.60;;;;;;4908455;28;95825;-74
2023/09/07 11:52:41;;;;;;;109.47;59.13;;;24.60;59.50;;;;;;4901704;28;94777;-75
2023/09/07 11:55:08;;;;;;;108.25;58.90;;;24.50;58.80;;;;;;4902748;28;96798;-76
2023/09/07 11:57:33;;;;;;;108.47;58.85;;;24.60;58.50;;;;;;4897573;28;95060;-77
2023/09/07 11:59:59;;;;;;;112.45;58.72;;;24.50;58.20;;;;;;4896748;28;96040;-74
2023/09/07 12:02:26;;;;;;;108.80;58.85;;;24.60;57.30;;;;;;4895563;28;96812;-76
2023/09/07 12:04:52;;;;;;;108.80;58.65;;;24.60;56.80;;;;;;4896628;28;98341;-76
2023/09/07 12:07:17;;;;;;;109.95;59.10;;;24.50;56.40;;;;;;4895762;28;94886;-78
2023/09/07 12:09:43;;;;;;;108.07;58.63;;;24.60;56.40;;;;;;4885401;28;96809;-75
2023/09/07 12:12:10;;;;;;;107.72;58.72;;;24.60;56.70;;;;;;4886694;28;95657;-79
2023/09/07 12:14:36;;;;;;;109.32;58.25;;;24.70;56.90;;;;;;4902129;28;97532;-76
2023/09/07 12:17:02;;;;;;;109.80;58.75;;;24.70;56.70;;;;;;4898143;28;94798;-76
2023/09/07 12:19:27;;;;;;;109.03;58.95;;;24.70;56.50;;;;;;4901534;28;95514;-76
2023/09/07 12:21:53;;;;;;;108.00;58.83;;;24.70;56.60;;;;;;4898912;28;95588;-78
2023/09/07 12:24:19;;;;;;;109.10;58.65;;;24.70;56.60;;;;;;4905244;28;94653;-76
2023/09/07 12:26:44;;;;;;;108.18;59.13;;;24.70;56.60;;;;;;4898442;28;100637;-80
2023/09/07 12:29:10;;;;;;;108.93;58.92;;;24.70;56.50;;;;;;4907821;28;97765;-76
2023/09/07 12:31:36;;;;;;;108.53;58.55;;;24.70;56.90;;;;;;4904336;28;94726;-77
2023/09/07 12:34:01;;;;;;;109.00;58.72;;;24.80;57.10;;;;;;4902877;28;96648;-77
2023/09/07 12:36:29;;;;;;;110.63;58.90;;;24.80;57.40;;;;;;4903426;28;95738;-80
2023/09/07 12:39:00;;;;;;;108.40;58.58;;;24.90;57.90;;;;;;4910811;28;96589;-77
2023/09/07 12:41:30;;;;;;;109.03;58.72;;;24.90;58.20;;;;;;4901653;28;95281;-78
2023/09/07 12:43:56;;;;;;;108.43;58.40;;;24.90;58.00;;;;;;4912335;28;95977;-74
2023/09/07 12:46:21;;;;;;;110.65;58.63;;;24.90;57.90;;;;;;4905076;28;99277;-76
2023/09/07 12:48:47;;;;;;;109.20;58.83;;;24.90;57.70;;;;;;4889210;28;95568;-76
2023/09/07 12:51:13;;;;;;;108.45;58.88;;;24.90;57.50;;;;;;4904508;28;97032;-76
2023/09/07 12:53:39;;;;;;;108.82;58.75;;;24.90;57.30;;;;;;4882501;28;96860;-77
2023/09/07 12:56:05;;;;;;;107.25;58.60;;;24.90;57.00;;;;;;4882774;28;96363;-74
2023/09/07 12:58:31;;;;;;;109.88;58.97;;;24.90;56.90;;;;;;4910653;28;95912;-78
2023/09/07 13:00:56;;;;;;;109.07;58.25;;;24.90;56.80;;;;;;4905069;28;95193;-78
2023/09/07 13:03:22;;;;;;;107.13;58.45;;;24.90;56.80;;;;;;4906422;28;98504;-78
2023/09/07 13:05:48;;;;;;;109.65;58.50;;;24.90;56.50;;;;;;4895035;28;97668;-78
2023/09/07 13:08:14;;;;;;;110.43;59.42;;;24.90;56.50;;;;;;4897965;28;98486;-77
2023/09/07 13:10:40;;;;;;;109.72;58.85;;;25.00;56.40;;;;;;4902669;28;94560;-77
2023/09/07 13:13:06;;;;;;;108.53;58.80;;;25.00;56.40;;;;;;4878036;28;97742;-76
2023/09/07 13:15:31;;;;;;;108.20;58.63;;;25.00;56.40;;;;;;4898983;28;95261;-78
2023/09/07 13:17:57;;;;;;;108.18;58.47;;;25.00;56.40;;;;;;4874709;28;99072;-77
2023/09/07 13:20:23;;;;;;;109.18;58.63;;;25.00;56.40;;;;;;4906846;28;96026;-77
2023/09/07 13:22:48;;;;;;;107.35;58.50;;;25.00;56.10;;;;;;4878777;28;96691;-77
2023/09/07 13:25:15;;;;;;;109.47;58.92;;;25.00;56.10;;;;;;4892649;28;97318;-75
2023/09/07 13:27:40;;;;;;;110.22;59.10;;;25.00;56.10;;;;;;4894431;28;96500;-75
2023/09/07 13:30:07;;;;;;;108.68;58.70;;;25.00;56.10;;;;;;4902117;28;95246;-74
2023/09/07 13:32:34;;;;;;;108.65;58.33;;;25.10;56.20;;;;;;4897982;28;95600;-77
2023/09/07 13:35:00;;;;;;;109.22;59.03;;;25.10;56.20;;;;;;4890985;28;96579;-77
2023/09/07 13:37:26;;;;;;;109.25;58.90;;;25.10;56.40;;;;;;4903728;28;99496;-79